Skip Navigation LinksHome page > Weather > Current weather Skip Navigation Links

Current Weather

Jakutsk, Russia

For information only: do not use for flight planning or navigation.
Latest weather
Observation time Thursday, September 3, 2015 9:30 PM JST
Local time Thursday, September 3, 2015 9:49 PM JST
Flight conditions Visual Meteorological Conditions
Winds
Wind direction North-Northwest (330°)
Wind speed 7 mph
Visibility 6.2 mi.
Sky condition
Ceiling unlimited
Sky clear
Temperature 48°F
Dewpoint 30°F
Altimeter 30.03 in.Hg
Precipitation
QF 9:34 AM
Derived measurements
Relative humidity 50%
Wind chill 45°F
Density altitude -420 ft.
Remarks
Ceiling and visibility OK.
No significant changes expected in the next two hours.
METAR UEEE 031230Z 33003MPS CAVOK 09/M01 Q1017 R23L/09//60 NOSIG RMK QFE754

Settings

Location code

InnerDrive.Weather 4.0.5722.1 Release CLR 4.0.30319.34014
Copyright ©2015 Inner Drive Technology. All rights reserved. Portions Copyright ©1986-2015 David Braverman.

Find weather

Site navigation


Skip Navigation Links

Place info

Page info

PayPal - The safer, easier way to pay online!

Return home.

Copyright ©2015 Inner Drive Technology. Purveyors of fine, hand-crafted computer software. Page printed 2015-09-03T12:49:17 UTC.